createdAt,value
2023-12-30T00:00:43.857Z,0.80
2023-12-30T00:03:12.375Z,0.90
2023-12-30T00:05:40.182Z,0.67
2023-12-30T00:08:09.558Z,0.90
2023-12-30T00:10:37.775Z,0.90
2023-12-30T00:13:06.003Z,1.10
2023-12-30T00:15:34.112Z,0.90
2023-12-30T00:18:02.258Z,0.87
2023-12-30T00:20:30.060Z,0.70
2023-12-30T00:22:57.914Z,0.93
2023-12-30T00:25:27.331Z,1.20
2023-12-30T00:27:56.918Z,1.10
2023-12-30T00:30:25.227Z,0.90
2023-12-30T00:32:53.127Z,1.30
2023-12-30T00:35:22.416Z,1.00
2023-12-30T00:37:50.588Z,1.10
2023-12-30T00:40:26.349Z,1.10
2023-12-30T00:42:57.036Z,1.80
2023-12-30T00:45:25.170Z,1.40
2023-12-30T00:47:53.535Z,1.40
2023-12-30T00:50:21.502Z,1.50
2023-12-30T00:52:49.917Z,1.60
2023-12-30T00:55:18.550Z,1.60
2023-12-30T00:57:46.415Z,1.87
2023-12-30T01:00:16.933Z,1.70
2023-12-30T01:02:44.638Z,1.43
2023-12-30T01:05:12.813Z,1.90
2023-12-30T01:07:40.736Z,1.70
2023-12-30T01:10:09.200Z,1.83
2023-12-30T01:12:36.928Z,2.10
2023-12-30T01:15:05.417Z,1.80
2023-12-30T01:17:34.909Z,2.07
2023-12-30T01:20:03.626Z,2.53
2023-12-30T01:22:31.628Z,2.63
2023-12-30T01:24:59.420Z,2.07
2023-12-30T01:27:27.195Z,2.40
2023-12-30T01:29:55.468Z,1.70
2023-12-30T01:32:23.203Z,1.70
2023-12-30T01:34:52.678Z,1.67
2023-12-30T01:37:21.012Z,1.20
2023-12-30T01:39:49.172Z,1.60
2023-12-30T01:42:17.771Z,1.40
2023-12-30T01:44:46.029Z,1.40
2023-12-30T01:47:14.236Z,1.40
2023-12-30T01:49:42.249Z,2.00
2023-12-30T01:52:12.051Z,2.43
2023-12-30T01:54:40.506Z,2.10
2023-12-30T01:57:08.394Z,2.00
2023-12-30T01:59:37.951Z,2.07
2023-12-30T02:02:06.020Z,2.97
2023-12-30T02:04:34.124Z,2.47
2023-12-30T02:07:02.044Z,2.60
2023-12-30T02:09:31.399Z,2.23
2023-12-30T02:12:00.355Z,2.23
2023-12-30T02:14:29.702Z,2.47
2023-12-30T02:16:58.621Z,2.63
2023-12-30T02:19:27.416Z,2.30
2023-12-30T02:21:56.892Z,1.93
2023-12-30T02:24:26.781Z,1.90
2023-12-30T02:26:55.743Z,2.70
2023-12-30T02:29:23.806Z,2.00
2023-12-30T02:31:51.729Z,1.90
2023-12-30T02:34:20.438Z,2.30
2023-12-30T02:36:50.199Z,2.13
2023-12-30T02:39:20.208Z,2.03
2023-12-30T02:41:49.662Z,1.67
2023-12-30T02:44:20.464Z,1.80
2023-12-30T02:46:49.241Z,2.43
2023-12-30T02:49:19.393Z,1.70
2023-12-30T02:51:47.677Z,1.47
2023-12-30T02:54:15.835Z,1.60
2023-12-30T02:56:43.930Z,1.63
2023-12-30T02:59:13.107Z,1.23
2023-12-30T03:01:40.929Z,1.30
2023-12-30T03:04:09.115Z,1.60
2023-12-30T03:06:36.955Z,1.27
2023-12-30T03:09:04.884Z,1.00
2023-12-30T03:11:32.832Z,1.73
2023-12-30T03:14:01.781Z,1.40
2023-12-30T03:16:31.142Z,1.60
2023-12-30T03:18:59.345Z,1.07
2023-12-30T03:21:27.137Z,0.97
2023-12-30T03:23:55.153Z,1.10
2023-12-30T03:26:23.175Z,1.40
2023-12-30T03:28:51.174Z,1.10
2023-12-30T03:31:23.030Z,1.10
2023-12-30T03:33:52.799Z,1.13
2023-12-30T03:36:20.671Z,1.30
2023-12-30T03:38:49.979Z,1.30
2023-12-30T03:41:19.910Z,0.90
2023-12-30T03:46:33.624Z,1.50
2023-12-30T03:49:03.491Z,1.00
2023-12-30T03:51:31.724Z,1.53
2023-12-30T03:53:59.734Z,1.43
2023-12-30T03:56:27.515Z,1.33
2023-12-30T03:58:57.930Z,1.40
2023-12-30T04:01:25.049Z,1.73
2023-12-30T04:03:53.883Z,1.20
2023-12-30T04:06:22.994Z,1.93
2023-12-30T04:08:50.755Z,4.30
2023-12-30T04:11:18.733Z,2.37
2023-12-30T04:13:46.625Z,1.50
2023-12-30T04:16:14.470Z,1.80
2023-12-30T04:18:42.517Z,1.70
2023-12-30T04:21:10.880Z,1.20
2023-12-30T04:23:40.558Z,1.13
2023-12-30T04:26:08.283Z,1.10
2023-12-30T04:28:36.857Z,0.90
2023-12-30T04:31:04.947Z,0.80
2023-12-30T04:33:32.989Z,1.00
2023-12-30T04:36:01.437Z,0.90
2023-12-30T04:38:29.463Z,0.80
2023-12-30T04:40:58.561Z,0.80
2023-12-30T04:43:26.824Z,0.60
2023-12-30T04:45:54.773Z,0.83
2023-12-30T04:48:22.837Z,0.80
2023-12-30T04:50:51.110Z,0.87
2023-12-30T04:53:19.881Z,0.70
2023-12-30T04:55:47.594Z,0.80
2023-12-30T04:58:17.453Z,0.90
2023-12-30T05:00:45.877Z,0.60
2023-12-30T05:03:13.757Z,0.60
2023-12-30T05:05:41.738Z,0.70
2023-12-30T05:08:09.785Z,0.70
2023-12-30T05:10:37.788Z,1.00
2023-12-30T05:13:06.408Z,0.80
2023-12-30T05:15:36.214Z,0.80
2023-12-30T05:18:04.382Z,0.80
2023-12-30T05:20:32.188Z,0.90
2023-12-30T05:23:01.398Z,1.00
2023-12-30T05:25:29.894Z,0.73
2023-12-30T05:27:57.730Z,0.70
2023-12-30T05:30:25.977Z,0.80
2023-12-30T05:32:55.562Z,0.70
2023-12-30T05:35:23.613Z,0.80
2023-12-30T05:37:52.490Z,0.70
2023-12-30T05:40:20.370Z,0.60
2023-12-30T05:42:48.172Z,1.00
2023-12-30T05:45:16.347Z,0.90
2023-12-30T05:47:44.227Z,0.80
2023-12-30T05:50:14.864Z,0.60
2023-12-30T05:52:43.292Z,1.00
2023-12-30T05:55:11.099Z,0.70
2023-12-30T05:57:39.187Z,0.70
2023-12-30T06:00:08.893Z,0.70
2023-12-30T06:02:42.787Z,0.87
2023-12-30T06:05:34.233Z,0.70
2023-12-30T06:08:02.072Z,0.80
2023-12-30T06:10:29.977Z,0.73
2023-12-30T06:12:58.196Z,0.73
2023-12-30T06:15:25.904Z,0.70
2023-12-30T06:17:53.980Z,1.20
2023-12-30T06:20:22.721Z,0.87
2023-12-30T06:22:52.252Z,0.80
2023-12-30T06:25:20.660Z,0.80
2023-12-30T06:27:48.613Z,0.60
2023-12-30T06:30:16.717Z,1.03
2023-12-30T06:32:44.650Z,1.43
2023-12-30T06:35:12.797Z,0.77
2023-12-30T06:37:40.556Z,0.73
2023-12-30T06:40:11.141Z,2.27
2023-12-30T06:42:39.780Z,1.20
2023-12-30T06:45:08.005Z,0.80
2023-12-30T06:47:37.299Z,1.03
2023-12-30T06:50:06.250Z,0.90
2023-12-30T06:52:34.847Z,0.77
2023-12-30T06:55:10.663Z,1.00
2023-12-30T06:57:48.170Z,0.93
2023-12-30T07:00:17.154Z,0.80
2023-12-30T07:02:45.620Z,1.07
2023-12-30T07:05:13.764Z,0.73
2023-12-30T07:07:41.763Z,0.90
2023-12-30T07:10:10.059Z,0.80
2023-12-30T07:12:38.052Z,0.70
2023-12-30T07:15:07.734Z,1.30
2023-12-30T07:17:35.516Z,0.90
2023-12-30T07:20:04.483Z,1.10
2023-12-30T07:22:32.370Z,1.37
2023-12-30T07:25:01.464Z,1.30
2023-12-30T07:27:29.761Z,1.37
2023-12-30T07:29:58.996Z,1.30
2023-12-30T07:32:28.230Z,1.50
2023-12-30T07:34:56.577Z,1.17
2023-12-30T07:37:25.573Z,1.33
2023-12-30T07:39:54.496Z,1.47
2023-12-30T07:42:24.669Z,1.03
2023-12-30T07:44:54.219Z,2.17
2023-12-30T07:47:22.646Z,2.23
2023-12-30T07:49:52.307Z,1.77
2023-12-30T07:52:20.601Z,1.77
2023-12-30T07:54:48.317Z,2.53
2023-12-30T07:57:16.745Z,3.70
2023-12-30T07:59:44.457Z,3.57
2023-12-30T08:02:12.686Z,1.73
2023-12-30T08:04:43.770Z,2.10
2023-12-30T08:07:13.344Z,1.50
2023-12-30T08:09:41.614Z,1.37
2023-12-30T08:12:10.260Z,1.30
2023-12-30T08:14:39.286Z,1.37
2023-12-30T08:17:07.301Z,1.43
2023-12-30T08:19:35.511Z,1.30
2023-12-30T08:22:03.966Z,1.20
2023-12-30T08:24:33.361Z,1.33
2023-12-30T08:27:01.534Z,1.53
2023-12-30T08:29:29.332Z,1.13
2023-12-30T08:31:57.067Z,1.40
2023-12-30T08:34:29.419Z,1.20
2023-12-30T08:36:57.522Z,1.40
2023-12-30T08:39:25.404Z,1.57
2023-12-30T08:41:55.492Z,1.27
2023-12-30T08:44:23.321Z,1.20
2023-12-30T08:47:14.139Z,2.00
2023-12-30T08:49:42.075Z,1.80
2023-12-30T08:52:10.249Z,1.37
2023-12-30T08:54:40.325Z,1.27
2023-12-30T08:57:09.508Z,1.23
2023-12-30T08:59:37.952Z,1.10
2023-12-30T09:02:06.789Z,1.20
2023-12-30T09:04:34.579Z,1.57
2023-12-30T09:07:02.851Z,2.00
2023-12-30T09:09:30.638Z,1.80
2023-12-30T09:12:00.192Z,2.17
2023-12-30T09:14:29.342Z,1.60
2023-12-30T09:16:58.222Z,1.10
2023-12-30T09:19:26.085Z,2.10
2023-12-30T09:21:54.255Z,1.53
2023-12-30T09:24:22.410Z,2.63
2023-12-30T09:26:50.343Z,1.63
2023-12-30T09:29:19.003Z,1.43
2023-12-30T09:31:48.660Z,1.13
2023-12-30T09:34:26.557Z,1.40
2023-12-30T09:37:02.349Z,1.83
2023-12-30T09:39:30.477Z,1.60
2023-12-30T09:41:58.260Z,2.60
2023-12-30T09:44:26.740Z,2.33
2023-12-30T09:46:56.498Z,2.17
2023-12-30T09:49:24.736Z,1.70
2023-12-30T09:51:52.511Z,1.20
2023-12-30T09:54:20.725Z,1.67
2023-12-30T09:56:50.408Z,1.70
2023-12-30T09:59:18.500Z,1.10
2023-12-30T10:01:46.352Z,1.70
2023-12-30T10:04:16.076Z,1.30
2023-12-30T10:06:45.252Z,1.77
2023-12-30T10:09:13.972Z,1.40
2023-12-30T10:11:44.019Z,1.70
2023-12-30T10:14:12.387Z,1.90
2023-12-30T10:16:40.318Z,1.90
2023-12-30T10:19:10.134Z,1.40
2023-12-30T10:21:39.805Z,2.20
2023-12-30T10:24:08.277Z,1.80
2023-12-30T10:26:38.556Z,2.43
2023-12-30T10:29:07.954Z,1.70
2023-12-30T10:31:35.748Z,1.93
2023-12-30T10:34:05.175Z,1.63
2023-12-30T10:36:33.364Z,1.53
2023-12-30T10:39:03.025Z,1.83
2023-12-30T10:41:31.056Z,1.63
2023-12-30T10:43:59.379Z,1.73
2023-12-30T10:46:27.919Z,1.43
2023-12-30T10:48:59.398Z,2.00
2023-12-30T10:51:29.123Z,1.77
2023-12-30T10:54:03.275Z,2.07
2023-12-30T10:56:33.795Z,1.60
2023-12-30T10:59:02.201Z,2.00
2023-12-30T11:01:32.674Z,1.93
2023-12-30T11:04:00.728Z,2.03
2023-12-30T11:06:31.089Z,2.30
2023-12-30T11:09:02.223Z,2.87
2023-12-30T11:11:30.331Z,2.23
2023-12-30T11:14:00.817Z,2.03
2023-12-30T11:16:35.046Z,2.10
2023-12-30T11:19:05.361Z,2.00
2023-12-30T11:21:38.795Z,1.83
2023-12-30T11:24:07.466Z,2.23
2023-12-30T11:26:36.605Z,2.30
2023-12-30T11:29:06.276Z,2.10
2023-12-30T11:31:34.505Z,1.77
2023-12-30T11:34:02.979Z,1.70
2023-12-30T11:36:31.688Z,1.93
2023-12-30T11:39:00.259Z,1.60
2023-12-30T11:41:30.188Z,1.83
2023-12-30T11:43:59.786Z,2.50
2023-12-30T11:46:29.874Z,1.63
2023-12-30T11:48:58.791Z,2.00
2023-12-30T11:51:27.300Z,1.90
2023-12-30T11:53:55.133Z,2.10
2023-12-30T11:56:23.613Z,2.33
2023-12-30T11:58:52.137Z,1.77
2023-12-30T12:01:20.800Z,2.00
2023-12-30T12:03:50.605Z,2.07
2023-12-30T12:06:18.799Z,1.90
2023-12-30T12:08:47.004Z,1.87
2023-12-30T12:11:15.126Z,2.60
2023-12-30T12:13:43.481Z,2.33
2023-12-30T12:16:11.364Z,2.80
2023-12-30T12:18:39.773Z,2.70
2023-12-30T12:21:15.138Z,3.43
2023-12-30T12:23:43.770Z,7.73
2023-12-30T12:26:11.666Z,2.50
2023-12-30T12:28:39.738Z,2.97
2023-12-30T12:31:07.968Z,2.37
2023-12-30T12:33:37.311Z,3.53
2023-12-30T12:36:07.155Z,3.00
2023-12-30T12:38:36.529Z,3.63
2023-12-30T12:41:04.460Z,2.17
2023-12-30T12:43:32.602Z,2.23
2023-12-30T12:46:00.858Z,1.90
2023-12-30T12:48:32.266Z,2.80
2023-12-30T12:51:00.159Z,3.63
2023-12-30T12:53:28.241Z,3.23
2023-12-30T12:55:57.789Z,2.27
2023-12-30T12:58:25.586Z,2.67
2023-12-30T13:00:53.670Z,3.00
2023-12-30T13:03:21.757Z,3.30
2023-12-30T13:05:49.920Z,2.50
2023-12-30T13:08:18.524Z,3.40
2023-12-30T13:10:49.715Z,2.43
2023-12-30T13:13:19.337Z,2.43
2023-12-30T13:15:47.407Z,2.07
2023-12-30T13:18:18.113Z,2.30
2023-12-30T13:20:47.285Z,2.20
2023-12-30T13:23:15.907Z,2.23
2023-12-30T13:25:44.841Z,2.77
2023-12-30T13:28:13.146Z,2.17
2023-12-30T13:30:44.756Z,2.77
2023-12-30T13:33:17.451Z,1.73
2023-12-30T13:35:46.019Z,4.23
2023-12-30T13:38:15.074Z,3.63
2023-12-30T13:40:43.641Z,2.97
2023-12-30T13:43:11.932Z,2.60
2023-12-30T13:45:44.793Z,3.30
2023-12-30T13:48:44.125Z,2.10
2023-12-30T13:51:12.838Z,2.60
2023-12-30T13:53:40.926Z,3.13
2023-12-30T13:56:15.341Z,3.60
2023-12-30T13:58:46.752Z,4.83
2023-12-30T14:01:17.613Z,3.90
2023-12-30T14:03:47.641Z,4.73
2023-12-30T14:06:20.690Z,3.60
2023-12-30T14:08:50.079Z,4.83
2023-12-30T14:11:33.058Z,3.20
2023-12-30T14:14:04.455Z,2.20
2023-12-30T14:16:33.259Z,2.87
2023-12-30T14:19:02.499Z,2.90
2023-12-30T14:21:30.994Z,2.63
2023-12-30T14:23:59.006Z,3.90
2023-12-30T14:26:27.079Z,3.27
2023-12-30T14:28:54.750Z,2.70
2023-12-30T14:31:23.060Z,3.40
2023-12-30T14:33:51.486Z,2.93
2023-12-30T14:36:20.726Z,3.30
2023-12-30T14:38:48.905Z,3.80
2023-12-30T14:41:16.847Z,2.83
2023-12-30T14:43:51.411Z,4.30
2023-12-30T14:46:20.666Z,2.90
2023-12-30T14:48:49.038Z,3.90
2023-12-30T14:51:17.333Z,3.43
2023-12-30T14:53:46.408Z,2.97
2023-12-30T14:56:15.048Z,3.93
2023-12-30T14:58:43.027Z,3.70
2023-12-30T15:01:10.917Z,3.43
2023-12-30T15:03:38.790Z,3.73
2023-12-30T15:06:07.583Z,3.87
2023-12-30T15:08:35.553Z,4.70
2023-12-30T15:11:05.110Z,4.90
2023-12-30T15:13:33.939Z,4.27
2023-12-30T15:16:01.989Z,3.90
2023-12-30T15:18:32.951Z,4.00
2023-12-30T15:21:00.788Z,4.20
2023-12-30T15:23:28.532Z,4.97
2023-12-30T15:25:56.691Z,4.23
2023-12-30T15:28:26.395Z,4.27
2023-12-30T15:30:54.297Z,3.87
2023-12-30T15:33:23.047Z,4.17
2023-12-30T15:35:52.218Z,4.93
2023-12-30T15:38:20.241Z,4.73
2023-12-30T15:40:48.700Z,4.40
2023-12-30T15:43:16.699Z,4.90
2023-12-30T15:45:45.876Z,4.90
2023-12-30T15:48:15.261Z,4.53
2023-12-30T15:50:43.906Z,4.73
2023-12-30T15:53:11.891Z,4.63
2023-12-30T15:55:40.910Z,5.80
2023-12-30T15:58:09.672Z,5.03
2023-12-30T16:00:37.583Z,5.43
2023-12-30T16:03:08.449Z,5.40
2023-12-30T16:05:38.346Z,4.90
2023-12-30T16:08:06.598Z,5.30
2023-12-30T16:10:34.562Z,5.83
2023-12-30T16:13:03.074Z,5.90
2023-12-30T16:15:35.310Z,6.70
2023-12-30T16:18:03.762Z,6.83
2023-12-30T16:20:32.997Z,6.80
2023-12-30T16:23:05.230Z,6.77
2023-12-30T16:25:34.198Z,6.20
2023-12-30T16:28:02.145Z,6.07
2023-12-30T16:30:30.484Z,6.60
2023-12-30T16:32:59.105Z,6.93
2023-12-30T16:35:27.092Z,7.60
2023-12-30T16:37:56.244Z,7.50
2023-12-30T16:40:24.047Z,6.77
2023-12-30T16:42:51.782Z,7.77
2023-12-30T16:45:20.101Z,6.63
2023-12-30T16:47:47.852Z,6.20
2023-12-30T16:50:19.085Z,6.40
2023-12-30T16:52:47.673Z,6.50
2023-12-30T16:55:17.730Z,6.87
2023-12-30T16:57:46.440Z,7.20
2023-12-30T17:00:17.942Z,7.90
2023-12-30T17:02:45.734Z,6.83
2023-12-30T17:05:14.424Z,6.30
2023-12-30T17:07:42.449Z,8.07
2023-12-30T17:10:10.442Z,8.37
2023-12-30T17:12:39.761Z,8.40
2023-12-30T17:15:09.409Z,7.50
2023-12-30T17:17:37.232Z,8.77
2023-12-30T17:20:06.446Z,8.10
2023-12-30T17:22:35.318Z,9.10
2023-12-30T17:25:03.323Z,8.20
2023-12-30T17:27:31.324Z,9.03
2023-12-30T17:30:00.617Z,10.03
2023-12-30T17:32:30.618Z,9.17
2023-12-30T17:34:59.950Z,9.90
2023-12-30T17:37:28.140Z,7.90
2023-12-30T17:39:56.237Z,8.50
2023-12-30T17:42:23.908Z,7.57
2023-12-30T17:44:52.468Z,8.10
2023-12-30T17:47:21.912Z,7.83
2023-12-30T17:49:51.198Z,8.13
2023-12-30T17:52:19.261Z,8.37
2023-12-30T17:54:47.024Z,10.23
2023-12-30T17:57:14.928Z,10.73
2023-12-30T17:59:43.125Z,9.07
2023-12-30T18:02:11.244Z,13.70
2023-12-30T18:04:41.326Z,9.63
2023-12-30T18:07:09.626Z,10.27
2023-12-30T18:09:37.664Z,10.00
2023-12-30T18:12:06.490Z,10.10
2023-12-30T18:14:34.549Z,12.17
2023-12-30T18:17:02.460Z,11.07
2023-12-30T18:19:30.718Z,11.10
2023-12-30T18:22:02.793Z,11.30
2023-12-30T18:24:31.107Z,10.53
2023-12-30T18:26:58.811Z,11.00
2023-12-30T18:29:27.146Z,11.07
2023-12-30T18:31:54.877Z,12.97
2023-12-30T18:34:23.178Z,10.60
2023-12-30T18:36:53.931Z,10.50
2023-12-30T18:39:23.026Z,10.60
2023-12-30T18:41:51.122Z,8.63
2023-12-30T18:44:18.817Z,10.50
2023-12-30T18:46:46.592Z,12.67
2023-12-30T18:49:14.626Z,9.63
2023-12-30T18:51:42.632Z,9.00
2023-12-30T18:54:10.325Z,7.80
2023-12-30T18:56:39.692Z,9.63
2023-12-30T18:59:07.837Z,9.90
2023-12-30T19:01:36.860Z,8.40
2023-12-30T19:04:04.758Z,10.63
2023-12-30T19:06:33.730Z,13.27
2023-12-30T19:09:02.583Z,10.70
2023-12-30T19:11:30.540Z,10.10
2023-12-30T19:13:59.867Z,9.00
2023-12-30T19:16:27.817Z,11.23
2023-12-30T19:18:56.117Z,9.40
2023-12-30T19:21:24.040Z,9.70
2023-12-30T19:23:51.722Z,10.03
2023-12-30T19:26:19.751Z,9.07
2023-12-30T19:28:47.582Z,10.80
2023-12-30T19:31:18.414Z,11.40
2023-12-30T19:33:46.756Z,10.70
2023-12-30T19:36:15.105Z,16.13
2023-12-30T19:38:43.365Z,8.60
2023-12-30T19:41:11.476Z,8.73
2023-12-30T19:43:39.472Z,9.97
2023-12-30T19:46:08.951Z,8.33
2023-12-30T19:48:38.721Z,8.23
2023-12-30T19:51:07.903Z,11.87
2023-12-30T19:53:35.862Z,16.23
2023-12-30T19:56:03.588Z,12.30
2023-12-30T19:58:32.890Z,10.10
2023-12-30T20:01:00.900Z,11.07
2023-12-30T20:03:29.907Z,9.47
2023-12-30T20:05:59.111Z,8.60
2023-12-30T20:08:27.216Z,11.53
2023-12-30T20:10:55.038Z,11.63
2023-12-30T20:13:23.671Z,13.10
2023-12-30T20:15:51.474Z,12.87
2023-12-30T20:18:19.463Z,11.70
2023-12-30T20:20:47.402Z,22.57
2023-12-30T20:23:15.953Z,12.20
2023-12-30T20:25:43.655Z,13.30
2023-12-30T20:30:59.223Z,8.10
2023-12-30T20:33:27.614Z,17.93
2023-12-30T20:35:55.943Z,14.07
2023-12-30T20:38:25.026Z,11.27
2023-12-30T20:40:53.377Z,14.97
2023-12-30T20:43:21.231Z,20.93
2023-12-30T20:45:49.373Z,15.10
2023-12-30T20:48:17.986Z,12.27
2023-12-30T20:50:45.912Z,14.07
2023-12-30T20:53:13.676Z,12.33
2023-12-30T20:55:43.023Z,16.83
2023-12-30T20:58:10.847Z,13.03
2023-12-30T21:00:39.750Z,13.77
2023-12-30T21:03:08.145Z,12.13
2023-12-30T21:05:35.900Z,9.40
2023-12-30T21:08:03.935Z,8.27
2023-12-30T21:10:31.944Z,9.80
2023-12-30T21:13:01.433Z,10.33
2023-12-30T21:15:30.038Z,14.90
2023-12-30T21:17:58.095Z,14.70
2023-12-30T21:20:25.832Z,11.73
2023-12-30T21:22:55.967Z,8.70
2023-12-30T21:25:27.387Z,8.30
2023-12-30T21:27:55.875Z,10.30
2023-12-30T21:30:25.793Z,9.33
2023-12-30T21:32:55.309Z,11.93
2023-12-30T21:35:23.320Z,9.00
2023-12-30T21:37:51.604Z,10.00
2023-12-30T21:40:20.192Z,11.13
2023-12-30T21:42:48.054Z,10.90
2023-12-30T21:45:16.067Z,10.67
2023-12-30T21:47:45.201Z,12.40
2023-12-30T21:50:14.428Z,9.40
2023-12-30T21:52:45.282Z,8.30
2023-12-30T21:55:13.238Z,10.50
2023-12-30T21:57:41.011Z,9.77
2023-12-30T22:00:12.405Z,20.73
2023-12-30T22:02:40.376Z,8.43
2023-12-30T22:05:10.291Z,9.40
2023-12-30T22:07:38.707Z,9.27
2023-12-30T22:10:07.935Z,9.57
2023-12-30T22:12:35.921Z,8.73
2023-12-30T22:15:03.903Z,8.70
2023-12-30T22:17:31.938Z,9.90
2023-12-30T22:20:00.693Z,11.07
2023-12-30T22:22:30.157Z,11.80
2023-12-30T22:25:02.842Z,9.50
2023-12-30T22:27:33.318Z,9.97
2023-12-30T22:30:02.430Z,12.57
2023-12-30T22:32:32.188Z,9.30
2023-12-30T22:35:04.287Z,9.07
2023-12-30T22:37:33.693Z,11.97
2023-12-30T22:40:01.707Z,10.30
2023-12-30T22:42:29.833Z,10.47
2023-12-30T22:44:58.457Z,11.27
2023-12-30T22:47:26.479Z,10.27
2023-12-30T22:49:54.480Z,10.60
2023-12-30T22:52:22.274Z,9.60
2023-12-30T22:54:51.416Z,13.53
2023-12-30T22:57:19.560Z,11.23
2023-12-30T22:59:47.367Z,12.27
2023-12-30T23:02:15.462Z,11.40
2023-12-30T23:04:43.427Z,8.33
2023-12-30T23:07:10.868Z,10.40
2023-12-30T23:09:39.482Z,10.33
2023-12-30T23:12:09.478Z,10.50
2023-12-30T23:14:37.568Z,10.00
2023-12-30T23:17:05.630Z,8.63
2023-12-30T23:19:33.966Z,9.60
2023-12-30T23:22:01.706Z,10.07
2023-12-30T23:24:29.520Z,9.60
2023-12-30T23:26:57.442Z,8.10
2023-12-30T23:29:27.670Z,8.93
2023-12-30T23:31:55.684Z,8.47
2023-12-30T23:34:24.955Z,9.73
2023-12-30T23:36:56.087Z,7.73
2023-12-30T23:39:23.979Z,6.80
2023-12-30T23:41:51.910Z,7.43
2023-12-30T23:44:19.646Z,7.03
2023-12-30T23:46:48.993Z,7.57
2023-12-30T23:49:17.197Z,6.80
2023-12-30T23:51:45.044Z,7.13
2023-12-30T23:54:13.373Z,7.27
2023-12-30T23:56:44.179Z,5.87
2023-12-30T23:59:13.030Z,6.33
